createdAt,value
2022-11-17T00:02:32.215Z,23.23
2022-11-17T00:07:35.709Z,23.23
2022-11-17T00:12:58.723Z,24.67
2022-11-17T00:18:20.692Z,26.40
2022-11-17T00:23:24.138Z,25.40
2022-11-17T00:28:28.899Z,25.80
2022-11-17T00:33:49.541Z,27.77
2022-11-17T00:38:52.919Z,27.20
2022-11-17T00:43:57.778Z,27.37
2022-11-17T00:49:01.193Z,27.47
2022-11-17T00:54:05.723Z,27.63
2022-11-17T00:59:10.616Z,27.47
2022-11-17T01:04:15.109Z,27.53
2022-11-17T01:09:21.267Z,26.23
2022-11-17T01:14:28.336Z,27.60
2022-11-17T01:19:31.680Z,26.63
2022-11-17T01:24:35.103Z,27.43
2022-11-17T01:29:39.858Z,27.90
2022-11-17T01:34:43.249Z,27.60
2022-11-17T01:39:46.926Z,29.33
2022-11-17T01:45:03.427Z,28.10
2022-11-17T01:50:13.724Z,27.30
2022-11-17T01:55:18.959Z,26.93
2022-11-17T02:00:24.198Z,26.83
2022-11-17T02:05:41.473Z,26.53
2022-11-17T02:10:51.309Z,26.70
2022-11-17T02:15:56.563Z,27.30
2022-11-17T02:21:21.914Z,26.57
2022-11-17T02:26:53.703Z,26.33
2022-11-17T02:32:04.496Z,27.27
2022-11-17T02:37:15.923Z,27.13
2022-11-17T02:42:49.054Z,24.67
2022-11-17T02:47:55.911Z,25.43
2022-11-17T02:52:59.373Z,25.07
2022-11-17T02:58:02.712Z,25.63
2022-11-17T03:03:26.285Z,23.93
2022-11-17T03:08:38.460Z,25.47
2022-11-17T03:13:48.585Z,24.83
2022-11-17T03:19:03.511Z,23.70
2022-11-17T03:24:12.672Z,22.97
2022-11-17T03:29:20.405Z,24.13
2022-11-17T03:34:28.703Z,22.40
2022-11-17T03:39:35.086Z,23.43
2022-11-17T03:44:42.311Z,21.77
2022-11-17T03:49:52.759Z,23.13
2022-11-17T03:54:56.483Z,22.30
2022-11-17T04:00:03.396Z,23.97
2022-11-17T04:05:19.391Z,24.47
2022-11-17T04:10:25.816Z,23.80
2022-11-17T04:15:46.733Z,25.10
2022-11-17T04:20:53.476Z,23.87
2022-11-17T04:26:15.742Z,23.50
2022-11-17T04:31:20.673Z,24.03
2022-11-17T04:36:27.024Z,23.00
2022-11-17T04:41:48.788Z,23.63
2022-11-17T04:46:52.934Z,22.60
2022-11-17T04:51:57.734Z,25.23
2022-11-17T04:57:01.220Z,25.10
2022-11-17T05:02:06.281Z,24.30
2022-11-17T05:07:11.343Z,22.57
2022-11-17T05:12:31.947Z,23.13
2022-11-17T05:17:35.330Z,24.77
2022-11-17T05:23:00.231Z,23.50
2022-11-17T05:28:06.111Z,23.83
2022-11-17T05:33:09.430Z,24.27
2022-11-17T05:38:14.193Z,24.63
2022-11-17T05:43:17.557Z,23.10
2022-11-17T05:48:21.466Z,25.27
2022-11-17T05:53:26.991Z,23.47
2022-11-17T05:58:33.619Z,24.47
2022-11-17T06:03:43.386Z,24.80
2022-11-17T06:08:48.168Z,24.13
2022-11-17T06:13:51.610Z,24.30
2022-11-17T06:19:01.953Z,23.73
2022-11-17T06:24:09.774Z,23.57
2022-11-17T06:29:14.516Z,24.47
2022-11-17T06:34:17.982Z,25.47
2022-11-17T06:39:22.873Z,26.07
2022-11-17T06:44:26.208Z,25.47
2022-11-17T06:49:29.681Z,24.70
2022-11-17T06:54:34.435Z,23.60
2022-11-17T06:59:37.780Z,22.63
2022-11-17T07:04:41.237Z,22.00
2022-11-17T07:09:46.119Z,20.30
2022-11-17T07:14:49.633Z,19.67
2022-11-17T07:19:54.638Z,21.07
2022-11-17T07:24:59.419Z,18.83
2022-11-17T07:30:02.951Z,18.50
2022-11-17T07:35:08.164Z,22.73
2022-11-17T07:40:13.642Z,18.73
2022-11-17T07:45:17.097Z,17.43
2022-11-17T07:50:20.567Z,17.60
2022-11-17T07:55:26.493Z,16.13
2022-11-17T08:00:31.993Z,16.17
2022-11-17T08:05:43.098Z,14.83
2022-11-17T08:10:48.537Z,15.93
2022-11-17T08:15:57.343Z,14.70
2022-11-17T08:21:04.905Z,14.03
2022-11-17T08:26:11.805Z,13.47
2022-11-17T08:31:15.446Z,13.33
2022-11-17T08:36:18.833Z,11.93
2022-11-17T08:41:23.747Z,12.07
2022-11-17T08:46:27.221Z,12.47
2022-11-17T08:51:30.586Z,10.57
2022-11-17T08:56:35.402Z,11.30
2022-11-17T09:01:38.862Z,10.83
2022-11-17T09:06:42.375Z,10.90
2022-11-17T09:11:47.292Z,10.53
2022-11-17T09:16:50.697Z,10.13
2022-11-17T09:21:54.101Z,11.60
2022-11-17T09:26:58.866Z,9.87
2022-11-17T09:32:02.261Z,10.63
2022-11-17T09:37:05.776Z,10.33
2022-11-17T09:42:15.385Z,10.87
2022-11-17T09:47:27.620Z,10.07
2022-11-17T09:52:36.598Z,10.10
2022-11-17T09:57:44.699Z,8.83
2022-11-17T10:02:48.921Z,10.63
2022-11-17T10:07:55.053Z,10.80
2022-11-17T10:13:00.851Z,9.67
2022-11-17T10:18:05.728Z,10.43
2022-11-17T10:23:14.110Z,10.10
2022-11-17T10:28:30.156Z,11.40
2022-11-17T10:33:36.317Z,11.40
2022-11-17T10:38:45.800Z,11.17
2022-11-17T10:44:01.313Z,11.13
2022-11-17T10:49:23.553Z,11.63
2022-11-17T10:54:26.951Z,12.53
2022-11-17T10:59:33.371Z,11.10
2022-11-17T11:04:39.604Z,10.17
2022-11-17T11:09:50.214Z,11.20
2022-11-17T11:14:59.699Z,10.37
2022-11-17T11:20:04.232Z,9.97
2022-11-17T11:25:19.127Z,9.80
2022-11-17T11:30:24.044Z,9.83
2022-11-17T11:35:54.351Z,10.43
2022-11-17T11:41:12.282Z,10.00
2022-11-17T11:46:24.925Z,10.40
2022-11-17T11:51:32.379Z,8.27
2022-11-17T11:56:39.908Z,8.40
2022-11-17T12:01:49.793Z,8.30
2022-11-17T12:07:00.811Z,8.80
2022-11-17T12:12:09.972Z,8.47
2022-11-17T12:17:23.616Z,8.57
2022-11-17T12:22:59.651Z,8.30
2022-11-17T12:28:29.236Z,7.77
2022-11-17T12:34:11.798Z,6.87
2022-11-17T12:39:47.692Z,7.23
2022-11-17T12:44:58.189Z,6.90
2022-11-17T12:50:37.300Z,6.50
2022-11-17T12:55:56.423Z,6.07
2022-11-17T13:01:12.446Z,6.10
2022-11-17T13:06:34.946Z,6.17
2022-11-17T13:11:39.248Z,6.60
2022-11-17T13:16:47.796Z,5.90
2022-11-17T13:21:59.877Z,5.97
2022-11-17T13:27:07.415Z,5.63
2022-11-17T13:32:21.251Z,6.00
2022-11-17T13:37:26.362Z,5.00
2022-11-17T13:42:32.928Z,4.57
2022-11-17T13:47:46.729Z,4.50
2022-11-17T13:52:55.354Z,4.70
2022-11-17T13:58:01.237Z,4.00
2022-11-17T14:03:26.824Z,4.60
2022-11-17T14:08:32.989Z,3.60
2022-11-17T14:13:40.288Z,3.33
2022-11-17T14:18:45.100Z,2.80
2022-11-17T14:23:48.534Z,2.90
2022-11-17T14:28:53.322Z,2.40
2022-11-17T14:33:58.186Z,2.90
2022-11-17T14:39:03.453Z,2.57
2022-11-17T14:44:06.846Z,3.83
2022-11-17T14:49:11.700Z,3.83
2022-11-17T14:54:15.124Z,3.53
2022-11-17T14:59:18.855Z,4.20
2022-11-17T15:09:47.268Z,6.47
2022-11-17T15:14:51.147Z,6.63
2022-11-17T15:19:56.432Z,6.63
2022-11-17T15:24:59.919Z,6.70
2022-11-17T15:30:03.384Z,5.83
2022-11-17T15:35:09.247Z,5.63
2022-11-17T15:40:19.117Z,5.77
2022-11-17T15:45:22.951Z,5.80
2022-11-17T15:50:27.830Z,5.83
2022-11-17T15:55:31.204Z,5.43
2022-11-17T16:00:35.031Z,6.27
2022-11-17T16:05:39.897Z,6.70
2022-11-17T16:10:43.306Z,6.50
2022-11-17T16:15:49.267Z,6.93
2022-11-17T16:20:54.796Z,7.00
2022-11-17T16:25:59.089Z,7.53
2022-11-17T16:31:14.848Z,7.60
2022-11-17T16:36:21.014Z,7.13
2022-11-17T16:41:25.567Z,8.10
2022-11-17T16:46:30.921Z,7.67
2022-11-17T16:51:36.116Z,7.17
2022-11-17T16:56:39.553Z,7.60
2022-11-17T17:01:43.160Z,7.73
2022-11-17T17:06:47.917Z,7.90
2022-11-17T17:11:51.514Z,8.50
2022-11-17T17:16:55.015Z,9.23
2022-11-17T17:21:59.837Z,8.93
2022-11-17T17:27:03.227Z,8.53
2022-11-17T17:32:06.673Z,8.83
2022-11-17T17:37:11.475Z,8.30
2022-11-17T17:42:15.025Z,8.90
2022-11-17T17:47:18.393Z,7.90
2022-11-17T17:52:23.225Z,8.53
2022-11-17T17:57:29.854Z,8.83
2022-11-17T18:02:36.509Z,9.00
2022-11-17T18:07:41.346Z,8.73
2022-11-17T18:12:44.769Z,9.07
2022-11-17T18:17:48.155Z,9.80
2022-11-17T18:22:53.105Z,9.63
2022-11-17T18:27:57.151Z,11.07
2022-11-17T18:33:03.092Z,10.07
2022-11-17T18:38:08.212Z,10.67
2022-11-17T18:43:11.616Z,10.00
2022-11-17T18:48:15.000Z,10.77
2022-11-17T18:53:19.786Z,10.37
2022-11-17T18:58:23.165Z,10.27
2022-11-17T19:03:26.592Z,10.13
2022-11-17T19:08:32.189Z,10.33
2022-11-17T19:13:37.211Z,11.00
2022-11-17T19:18:41.420Z,11.53
2022-11-17T19:23:51.469Z,10.60
2022-11-17T19:28:56.861Z,10.90
2022-11-17T19:34:00.397Z,10.77
2022-11-17T19:39:05.601Z,12.10
2022-11-17T19:44:10.279Z,11.87
2022-11-17T19:49:14.222Z,11.83
2022-11-17T19:54:19.419Z,9.80
2022-11-17T19:59:24.984Z,10.20
2022-11-17T20:04:28.403Z,10.83
2022-11-17T20:09:33.207Z,10.17
2022-11-17T20:14:36.639Z,11.27
2022-11-17T20:19:40.209Z,10.03
2022-11-17T20:24:45.293Z,10.33
2022-11-17T20:29:48.681Z,10.60
2022-11-17T20:34:52.054Z,9.37
2022-11-17T20:39:57.980Z,10.10
2022-11-17T20:45:01.361Z,9.80
2022-11-17T20:50:07.644Z,10.03
2022-11-17T20:55:12.456Z,9.27
2022-11-17T21:00:16.822Z,9.73
2022-11-17T21:05:20.219Z,9.83
2022-11-17T21:10:25.077Z,10.10
2022-11-17T21:15:28.435Z,9.37
2022-11-17T21:20:33.380Z,9.60
2022-11-17T21:25:38.320Z,10.83
2022-11-17T21:30:41.600Z,9.50
2022-11-17T21:35:45.025Z,9.57
2022-11-17T21:40:49.843Z,10.23
2022-11-17T21:45:53.254Z,9.90
2022-11-17T21:50:56.792Z,10.23
2022-11-17T21:56:06.294Z,9.70
2022-11-17T22:01:11.502Z,9.40
2022-11-17T22:06:18.195Z,9.50
2022-11-17T22:11:36.740Z,8.97
2022-11-17T22:16:42.654Z,10.80
2022-11-17T22:21:48.356Z,10.37
2022-11-17T22:26:53.117Z,9.50
2022-11-17T22:31:56.492Z,9.73
2022-11-17T22:36:59.940Z,11.47
2022-11-17T22:42:04.808Z,9.33
2022-11-17T22:47:08.183Z,9.47
2022-11-17T22:52:13.135Z,9.40
2022-11-17T22:57:17.960Z,9.30
2022-11-17T23:02:21.351Z,8.60
2022-11-17T23:07:24.745Z,9.97
2022-11-17T23:12:29.541Z,9.50
2022-11-17T23:17:32.935Z,8.77
2022-11-17T23:22:36.272Z,9.13
2022-11-17T23:27:41.111Z,8.50
2022-11-17T23:32:44.508Z,8.50
2022-11-17T23:37:47.890Z,9.80
2022-11-17T23:42:53.942Z,8.83
2022-11-17T23:47:57.337Z,8.57
2022-11-17T23:53:00.699Z,8.30
2022-11-17T23:58:06.109Z,7.53
